createdAt,value
2023-05-05T00:01:41.214Z,86.71
2023-05-05T00:04:09.149Z,86.50
2023-05-05T00:06:39.374Z,85.97
2023-05-05T00:09:07.470Z,86.07
2023-05-05T00:11:35.236Z,86.12
2023-05-05T00:14:03.209Z,85.99
2023-05-05T00:16:32.401Z,86.25
2023-05-05T00:19:00.232Z,85.91
2023-05-05T00:21:28.843Z,85.74
2023-05-05T00:23:57.797Z,85.76
2023-05-05T00:26:25.662Z,86.11
2023-05-05T00:28:53.939Z,85.49
2023-05-05T00:31:22.757Z,85.31
2023-05-05T00:33:50.741Z,86.57
2023-05-05T00:36:18.723Z,87.16
2023-05-05T00:38:46.993Z,86.88
2023-05-05T00:41:16.028Z,86.42
2023-05-05T00:43:43.666Z,86.89
2023-05-05T00:46:16.176Z,86.77
2023-05-05T00:48:43.963Z,90.22
2023-05-05T00:51:12.878Z,89.02
2023-05-05T00:53:43.102Z,87.47
2023-05-05T00:56:11.120Z,86.90
2023-05-05T00:58:41.258Z,85.91
2023-05-05T01:01:09.172Z,84.93
2023-05-05T01:03:37.742Z,85.83
2023-05-05T01:06:10.131Z,87.12
2023-05-05T01:08:45.201Z,87.97
2023-05-05T01:11:17.954Z,88.03
2023-05-05T01:13:51.329Z,88.29
2023-05-05T01:16:20.536Z,88.06
2023-05-05T01:18:54.062Z,91.71
2023-05-05T01:21:27.284Z,95.31
2023-05-05T01:24:07.683Z,99.71
2023-05-05T01:26:51.726Z,100.00
2023-05-05T01:29:33.779Z,100.00
2023-05-05T01:32:04.776Z,100.00
2023-05-05T01:34:35.823Z,100.00
2023-05-05T01:37:07.694Z,100.00
2023-05-05T01:39:36.429Z,100.00
2023-05-05T01:42:07.485Z,100.00
2023-05-05T01:44:37.548Z,100.00
2023-05-05T01:47:09.512Z,100.00
2023-05-05T01:49:39.412Z,100.00
2023-05-05T01:52:08.527Z,100.00
2023-05-05T01:54:39.301Z,100.00
2023-05-05T01:57:08.567Z,100.00
2023-05-05T01:59:37.649Z,100.00
2023-05-05T02:02:08.200Z,100.00
2023-05-05T02:04:45.011Z,100.00
2023-05-05T02:07:17.185Z,100.00
2023-05-05T02:09:45.826Z,100.00
2023-05-05T02:12:15.129Z,100.00
2023-05-05T02:14:44.096Z,100.00
2023-05-05T02:17:16.219Z,100.00
2023-05-05T02:19:45.221Z,100.00
2023-05-05T02:22:16.624Z,100.00
2023-05-05T02:24:45.184Z,100.00
2023-05-05T02:27:15.857Z,100.00
2023-05-05T02:29:48.148Z,100.00
2023-05-05T02:32:22.118Z,100.00
2023-05-05T02:34:53.801Z,100.00
2023-05-05T02:37:24.459Z,100.00
2023-05-05T02:40:00.327Z,100.00
2023-05-05T02:42:35.128Z,100.00
2023-05-05T02:45:06.865Z,100.00
2023-05-05T02:47:39.159Z,100.00
2023-05-05T02:50:11.876Z,100.00
2023-05-05T02:52:46.898Z,100.00
2023-05-05T02:55:15.985Z,100.00
2023-05-05T02:57:48.819Z,100.00
2023-05-05T03:00:29.791Z,100.00
2023-05-05T03:03:07.125Z,100.00
2023-05-05T03:05:38.870Z,100.00
2023-05-05T03:08:14.065Z,100.00
2023-05-05T03:10:45.470Z,100.00
2023-05-05T03:13:18.147Z,100.00
2023-05-05T03:15:49.238Z,100.00
2023-05-05T03:18:23.652Z,100.00
2023-05-05T03:20:58.776Z,100.00
2023-05-05T03:23:27.396Z,100.00
2023-05-05T03:25:59.591Z,100.00
2023-05-05T03:28:32.854Z,100.00
2023-05-05T03:31:07.101Z,100.00
2023-05-05T03:33:39.578Z,100.00
2023-05-05T03:36:10.094Z,100.00
2023-05-05T03:38:38.215Z,100.00
2023-05-05T03:41:06.905Z,100.00
2023-05-05T03:43:35.890Z,100.00
2023-05-05T03:46:03.924Z,100.00
2023-05-05T03:48:34.430Z,100.00
2023-05-05T03:51:05.155Z,100.00
2023-05-05T03:53:35.775Z,100.00
2023-05-05T03:56:07.212Z,100.00
2023-05-05T03:58:36.735Z,100.00
2023-05-05T04:01:05.152Z,100.00
2023-05-05T04:03:33.389Z,100.00
2023-05-05T04:06:02.735Z,100.00
2023-05-05T04:08:33.872Z,100.00
2023-05-05T04:11:04.143Z,100.00
2023-05-05T04:13:34.115Z,100.00
2023-05-05T04:16:03.960Z,100.00
2023-05-05T04:18:32.788Z,100.00
2023-05-05T04:21:01.360Z,100.00
2023-05-05T04:23:29.346Z,100.00
2023-05-05T04:25:57.676Z,100.00
2023-05-05T04:28:29.985Z,100.00
2023-05-05T04:30:59.771Z,100.00
2023-05-05T04:33:28.637Z,100.00
2023-05-05T04:35:56.846Z,100.00
2023-05-05T04:38:24.877Z,100.00
2023-05-05T04:40:53.250Z,100.00
2023-05-05T04:43:21.473Z,100.00
2023-05-05T04:45:54.796Z,100.00
2023-05-05T04:48:26.327Z,100.00
2023-05-05T04:50:54.635Z,100.00
2023-05-05T04:53:22.577Z,100.00
2023-05-05T04:55:50.470Z,100.00
2023-05-05T04:58:18.997Z,100.00
2023-05-05T05:00:47.302Z,100.00
2023-05-05T05:03:16.773Z,97.38
2023-05-05T05:05:44.996Z,92.76
2023-05-05T05:08:12.779Z,87.00
2023-05-05T05:10:41.469Z,81.32
2023-05-05T05:13:11.957Z,78.63
2023-05-05T05:15:40.823Z,78.99
2023-05-05T05:18:09.046Z,80.29
2023-05-05T05:20:38.578Z,82.92
2023-05-05T05:23:06.852Z,84.45
2023-05-05T05:25:39.225Z,83.76
2023-05-05T05:28:10.802Z,83.57
2023-05-05T05:30:50.971Z,86.38
2023-05-05T05:33:18.953Z,89.85
2023-05-05T05:35:48.896Z,91.79
2023-05-05T05:38:18.781Z,90.29
2023-05-05T05:40:47.954Z,86.21
2023-05-05T05:43:15.988Z,86.81
2023-05-05T05:45:44.103Z,85.14
2023-05-05T05:48:12.241Z,82.87
2023-05-05T05:50:40.074Z,77.22
2023-05-05T05:53:09.363Z,74.05
2023-05-05T05:55:37.422Z,73.81
2023-05-05T05:58:05.832Z,74.15
2023-05-05T06:00:34.206Z,73.49
2023-05-05T06:03:08.327Z,73.44
2023-05-05T06:05:38.908Z,73.34
2023-05-05T06:08:09.579Z,73.11
2023-05-05T06:10:42.971Z,72.43
2023-05-05T06:13:16.798Z,72.64
2023-05-05T06:15:48.544Z,72.82
2023-05-05T06:18:17.395Z,72.05
2023-05-05T06:20:45.530Z,69.96
2023-05-05T06:23:17.552Z,68.88
2023-05-05T06:25:51.804Z,67.80
2023-05-05T06:28:20.377Z,68.70
2023-05-05T06:30:48.458Z,71.97
2023-05-05T06:33:16.860Z,74.86
2023-05-05T06:35:44.703Z,75.17
2023-05-05T06:38:13.170Z,74.06
2023-05-05T06:40:42.608Z,70.88
2023-05-05T06:43:11.269Z,67.57
2023-05-05T06:45:46.453Z,67.95
2023-05-05T06:48:14.658Z,67.71
2023-05-05T06:50:43.372Z,65.33
2023-05-05T06:53:11.548Z,66.42
2023-05-05T06:55:39.669Z,70.18
2023-05-05T06:58:12.151Z,73.93
2023-05-05T07:00:41.329Z,75.83
2023-05-05T07:03:09.744Z,73.85
2023-05-05T07:05:38.044Z,69.55
2023-05-05T07:08:06.861Z,66.47
2023-05-05T07:10:34.702Z,62.99
2023-05-05T07:13:03.015Z,63.40
2023-05-05T07:15:34.165Z,63.76
2023-05-05T07:18:02.340Z,65.05
2023-05-05T07:20:30.122Z,66.66
2023-05-05T07:22:58.160Z,63.55
2023-05-05T07:25:26.960Z,60.00
2023-05-05T07:27:55.093Z,59.34
2023-05-05T07:30:25.113Z,54.93
2023-05-05T07:32:55.666Z,52.75
2023-05-05T07:35:23.547Z,51.94
2023-05-05T07:37:51.262Z,51.23
2023-05-05T07:40:19.048Z,51.60
2023-05-05T07:42:47.612Z,53.29
2023-05-05T07:45:15.414Z,53.77
2023-05-05T07:47:43.451Z,53.33
2023-05-05T07:50:12.856Z,50.50
2023-05-05T07:55:12.413Z,48.55
2023-05-05T07:57:40.771Z,51.62
2023-05-05T08:00:10.381Z,51.32
2023-05-05T08:02:42.220Z,50.53
2023-05-05T08:05:10.409Z,52.69
2023-05-05T08:07:41.540Z,55.36
2023-05-05T08:10:10.534Z,57.86
2023-05-05T08:12:38.966Z,60.47
2023-05-05T08:15:07.661Z,59.18
2023-05-05T08:17:47.438Z,59.15
2023-05-05T08:20:16.063Z,58.21
2023-05-05T08:22:45.793Z,58.02
2023-05-05T08:25:14.551Z,56.05
2023-05-05T08:27:43.241Z,50.54
2023-05-05T08:30:11.505Z,45.83
2023-05-05T08:32:39.556Z,41.34
2023-05-05T08:35:08.306Z,39.84
2023-05-05T08:37:36.465Z,37.51
2023-05-05T08:40:06.346Z,40.63
2023-05-05T08:42:38.828Z,42.54
2023-05-05T08:45:07.966Z,43.84
2023-05-05T08:47:36.755Z,44.99
2023-05-05T08:50:05.683Z,46.44
2023-05-05T08:52:38.799Z,48.87
2023-05-05T08:55:12.964Z,49.17
2023-05-05T08:57:43.555Z,47.99
2023-05-05T09:00:12.078Z,49.55
2023-05-05T09:02:40.341Z,47.40
2023-05-05T09:05:09.284Z,44.78
2023-05-05T09:07:38.121Z,42.93
2023-05-05T09:10:06.644Z,40.09
2023-05-05T09:12:36.304Z,41.47
2023-05-05T09:15:04.236Z,41.30
2023-05-05T09:17:32.119Z,39.28
2023-05-05T09:20:05.409Z,40.19
2023-05-05T09:22:37.231Z,40.58
2023-05-05T09:25:05.732Z,40.33
2023-05-05T09:27:38.296Z,40.15
2023-05-05T09:30:06.826Z,41.10
2023-05-05T09:32:44.371Z,41.20
2023-05-05T09:35:12.391Z,43.95
2023-05-05T09:37:40.516Z,45.42
2023-05-05T09:40:09.586Z,46.91
2023-05-05T09:42:39.143Z,47.50
2023-05-05T09:45:24.943Z,46.15
2023-05-05T09:47:58.734Z,42.70
2023-05-05T09:50:31.266Z,39.00
2023-05-05T09:52:59.859Z,39.71
2023-05-05T09:55:28.071Z,37.14
2023-05-05T09:57:57.409Z,38.07
2023-05-05T10:00:38.637Z,44.21
2023-05-05T10:03:06.814Z,44.74
2023-05-05T10:05:34.709Z,45.71
2023-05-05T10:08:13.125Z,44.26
2023-05-05T10:10:46.869Z,45.01
2023-05-05T10:13:16.777Z,43.92
2023-05-05T10:15:46.075Z,49.49
2023-05-05T10:18:16.043Z,43.12
2023-05-05T10:20:44.960Z,46.76
2023-05-05T10:23:15.402Z,45.22
2023-05-05T10:25:45.676Z,47.15
2023-05-05T10:28:17.692Z,41.92
2023-05-05T10:30:50.274Z,44.09
2023-05-05T10:35:55.477Z,33.27
2023-05-05T10:38:26.211Z,33.60
2023-05-05T10:40:55.282Z,30.54
2023-05-05T10:43:23.412Z,32.82
2023-05-05T10:45:53.970Z,33.15
2023-05-05T10:48:24.601Z,34.05
2023-05-05T10:50:58.896Z,34.58
2023-05-05T10:53:29.679Z,32.85
2023-05-05T10:56:05.407Z,32.02
2023-05-05T10:58:38.436Z,33.88
2023-05-05T11:01:10.738Z,36.31
2023-05-05T11:03:38.778Z,35.76
2023-05-05T11:06:16.318Z,37.72
2023-05-05T11:08:45.112Z,35.10
2023-05-05T11:11:13.718Z,37.69
2023-05-05T11:13:42.164Z,36.02
2023-05-05T11:16:37.413Z,34.49
2023-05-05T11:19:26.783Z,32.19
2023-05-05T11:22:04.787Z,32.04
2023-05-05T11:24:33.822Z,29.29
2023-05-05T11:27:01.880Z,33.19
2023-05-05T11:29:52.024Z,34.61
2023-05-05T11:32:20.168Z,28.86
2023-05-05T11:34:53.001Z,23.87
2023-05-05T11:37:23.820Z,23.32
2023-05-05T11:39:57.260Z,25.34
2023-05-05T11:42:25.984Z,25.26
2023-05-05T11:44:54.623Z,23.37
2023-05-05T11:47:27.109Z,25.27
2023-05-05T11:49:57.046Z,22.75
2023-05-05T11:52:26.897Z,22.39
2023-05-05T11:54:54.913Z,22.80
2023-05-05T11:57:28.949Z,21.99
2023-05-05T11:59:58.028Z,32.31
2023-05-05T12:02:27.830Z,25.98
2023-05-05T12:04:59.155Z,25.06
2023-05-05T12:07:27.974Z,22.10
2023-05-05T12:09:56.146Z,20.43
2023-05-05T12:12:35.279Z,24.04
2023-05-05T12:15:04.121Z,25.78
2023-05-05T12:17:42.800Z,26.03
2023-05-05T12:20:13.484Z,28.20
2023-05-05T12:22:41.780Z,25.88
2023-05-05T12:25:10.110Z,22.64
2023-05-05T12:27:39.234Z,23.48
2023-05-05T12:30:14.569Z,28.42
2023-05-05T12:32:42.330Z,27.02
2023-05-05T12:35:10.858Z,23.94
2023-05-05T12:37:40.329Z,22.33
2023-05-05T12:40:09.230Z,20.66
2023-05-05T12:42:40.636Z,19.56
2023-05-05T12:45:17.558Z,23.59
2023-05-05T12:47:45.358Z,21.00
2023-05-05T12:50:13.376Z,22.23
2023-05-05T12:52:46.355Z,20.66
2023-05-05T12:55:14.930Z,19.57
2023-05-05T12:57:57.649Z,18.96
2023-05-05T13:00:26.329Z,18.89
2023-05-05T13:02:54.473Z,21.29
2023-05-05T13:05:30.701Z,25.94
2023-05-05T13:07:59.927Z,26.17
2023-05-05T13:10:28.399Z,27.34
2023-05-05T13:12:57.989Z,28.29
2023-05-05T13:15:25.895Z,28.40
2023-05-05T13:17:59.661Z,25.40
2023-05-05T13:20:27.692Z,22.90
2023-05-05T13:22:55.355Z,21.16
2023-05-05T13:25:24.976Z,21.63
2023-05-05T13:27:52.680Z,20.08
2023-05-05T13:30:20.695Z,19.07
2023-05-05T13:32:48.494Z,17.87
2023-05-05T13:35:17.120Z,17.30
2023-05-05T13:37:46.968Z,18.24
2023-05-05T13:40:15.838Z,18.90
2023-05-05T13:42:45.214Z,22.78
2023-05-05T13:45:14.310Z,22.64
2023-05-05T13:47:44.571Z,21.73
2023-05-05T13:50:12.474Z,20.22
2023-05-05T13:52:40.518Z,19.02
2023-05-05T13:55:08.980Z,18.61
2023-05-05T13:57:36.773Z,19.65
2023-05-05T14:00:07.040Z,24.08
2023-05-05T14:02:35.440Z,28.30
2023-05-05T14:05:03.266Z,27.06
2023-05-05T14:07:32.863Z,23.31
2023-05-05T14:10:00.964Z,23.67
2023-05-05T14:12:28.828Z,24.83
2023-05-05T14:14:56.752Z,22.98
2023-05-05T14:17:25.865Z,21.73
2023-05-05T14:19:53.843Z,21.25
2023-05-05T14:22:21.493Z,23.10
2023-05-05T14:24:49.396Z,27.30
2023-05-05T14:27:17.340Z,28.12
2023-05-05T14:29:45.344Z,27.57
2023-05-05T14:32:13.388Z,27.50
2023-05-05T14:34:42.556Z,27.36
2023-05-05T14:37:10.167Z,27.32
2023-05-05T14:39:38.103Z,27.08
2023-05-05T14:42:06.282Z,26.51
2023-05-05T14:44:34.110Z,27.35
2023-05-05T14:47:02.200Z,29.43
2023-05-05T14:49:32.527Z,28.61
2023-05-05T14:52:02.125Z,30.42
2023-05-05T14:54:30.222Z,33.33
2023-05-05T14:56:58.665Z,33.35
2023-05-05T14:59:27.491Z,33.64
2023-05-05T15:01:55.932Z,33.55
2023-05-05T15:04:24.199Z,33.11
2023-05-05T15:06:52.189Z,34.18
2023-05-05T15:09:21.680Z,34.76
2023-05-05T15:11:50.238Z,35.58
2023-05-05T15:14:18.836Z,37.35
2023-05-05T15:16:50.108Z,37.43
2023-05-05T15:19:18.897Z,38.14
2023-05-05T15:21:53.231Z,39.52
2023-05-05T15:24:26.272Z,40.18
2023-05-05T15:26:59.840Z,42.56
2023-05-05T15:29:27.829Z,48.57
2023-05-05T15:31:55.776Z,53.49
2023-05-05T15:34:23.823Z,55.89
2023-05-05T15:36:52.757Z,59.52
2023-05-05T15:39:22.323Z,62.46
2023-05-05T15:41:50.225Z,65.27
2023-05-05T15:44:19.016Z,67.21
2023-05-05T15:46:50.393Z,68.74
2023-05-05T15:49:20.073Z,68.51
2023-05-05T15:51:48.980Z,69.95
2023-05-05T15:54:17.032Z,71.87
2023-05-05T15:56:46.392Z,73.79
2023-05-05T15:59:15.050Z,74.13
2023-05-05T16:01:43.238Z,71.92
2023-05-05T16:04:11.675Z,72.32
2023-05-05T16:06:39.663Z,71.55
2023-05-05T16:09:07.600Z,70.31
2023-05-05T16:11:35.332Z,72.77
2023-05-05T16:14:05.258Z,72.42
2023-05-05T16:16:33.437Z,71.88
2023-05-05T16:19:01.301Z,73.82
2023-05-05T16:21:29.355Z,78.26
2023-05-05T16:23:57.443Z,74.87
2023-05-05T16:26:25.713Z,80.33
2023-05-05T16:28:53.734Z,84.12
2023-05-05T16:31:24.007Z,91.31
2023-05-05T16:33:52.501Z,98.21
2023-05-05T16:36:20.790Z,100.00
2023-05-05T16:38:49.617Z,100.00
2023-05-05T16:41:17.938Z,100.00
2023-05-05T16:43:46.316Z,100.00
2023-05-05T16:46:14.108Z,100.00
2023-05-05T16:48:43.364Z,100.00
2023-05-05T16:51:11.165Z,100.00
2023-05-05T16:53:39.938Z,100.00
2023-05-05T16:56:08.566Z,100.00
2023-05-05T16:58:36.350Z,100.00
2023-05-05T17:01:04.286Z,100.00
2023-05-05T17:03:32.360Z,100.00
2023-05-05T17:06:01.713Z,100.00
2023-05-05T17:08:29.516Z,100.00
2023-05-05T17:10:57.598Z,100.00
2023-05-05T17:13:25.572Z,100.00
2023-05-05T17:15:55.602Z,100.00
2023-05-05T17:18:28.427Z,100.00
2023-05-05T17:20:57.449Z,100.00
2023-05-05T17:23:27.125Z,100.00
2023-05-05T17:25:55.063Z,100.00
2023-05-05T17:28:22.977Z,100.00
2023-05-05T17:30:51.189Z,100.00
2023-05-05T17:33:21.615Z,100.00
2023-05-05T17:35:49.623Z,100.00
2023-05-05T17:38:17.684Z,100.00
2023-05-05T17:40:47.242Z,99.96
2023-05-05T17:43:14.977Z,97.75
2023-05-05T17:45:42.819Z,97.62
2023-05-05T17:48:10.697Z,97.32
2023-05-05T17:50:38.657Z,96.88
2023-05-05T17:53:06.502Z,94.09
2023-05-05T17:55:34.259Z,94.22
2023-05-05T17:58:03.793Z,94.56
2023-05-05T18:00:32.222Z,91.62
2023-05-05T18:03:01.666Z,90.73
2023-05-05T18:05:30.890Z,89.64
2023-05-05T18:08:00.119Z,88.88
2023-05-05T18:10:28.096Z,88.18
2023-05-05T18:12:58.358Z,88.27
2023-05-05T18:15:31.598Z,85.83
2023-05-05T18:17:59.763Z,84.63
2023-05-05T18:20:27.669Z,83.73
2023-05-05T18:22:55.591Z,83.67
2023-05-05T18:25:23.472Z,84.50
2023-05-05T18:27:52.690Z,86.38
2023-05-05T18:30:23.532Z,88.88
2023-05-05T18:32:52.828Z,88.83
2023-05-05T18:35:22.392Z,91.02
2023-05-05T18:37:50.946Z,94.02
2023-05-05T18:40:19.530Z,96.17
2023-05-05T18:42:47.832Z,98.89
2023-05-05T18:45:16.069Z,100.00
2023-05-05T18:47:46.675Z,100.00
2023-05-05T18:50:16.729Z,100.00
2023-05-05T18:52:44.743Z,100.00
2023-05-05T18:55:12.576Z,100.00
2023-05-05T18:57:41.984Z,100.00
2023-05-05T19:00:10.484Z,100.00
2023-05-05T19:02:38.518Z,100.00
2023-05-05T19:05:07.126Z,100.00
2023-05-05T19:07:38.815Z,100.00
2023-05-05T19:10:07.114Z,100.00
2023-05-05T19:12:35.036Z,100.00
2023-05-05T19:15:03.255Z,100.00
2023-05-05T19:17:31.160Z,100.00
2023-05-05T19:19:59.565Z,100.00
2023-05-05T19:22:27.918Z,100.00
2023-05-05T19:24:57.021Z,100.00
2023-05-05T19:27:25.177Z,100.00
2023-05-05T19:29:55.829Z,100.00
2023-05-05T19:32:25.801Z,100.00
2023-05-05T19:34:54.725Z,100.00
2023-05-05T19:37:22.543Z,100.00
2023-05-05T19:39:51.651Z,100.00
2023-05-05T19:42:21.565Z,100.00
2023-05-05T19:44:49.816Z,100.00
2023-05-05T19:47:18.284Z,100.00
2023-05-05T19:49:46.433Z,100.00
2023-05-05T19:52:14.202Z,100.00
2023-05-05T19:54:43.548Z,100.00
2023-05-05T19:57:12.212Z,100.00
2023-05-05T19:59:43.441Z,100.00
2023-05-05T20:02:12.400Z,100.00
2023-05-05T20:04:41.838Z,100.00
2023-05-05T20:07:09.968Z,100.00
2023-05-05T20:09:39.085Z,100.00
2023-05-05T20:12:07.819Z,100.00
2023-05-05T20:14:36.361Z,100.00
2023-05-05T20:17:08.241Z,100.00
2023-05-05T20:19:36.373Z,100.00
2023-05-05T20:22:04.214Z,100.00
2023-05-05T20:24:33.785Z,100.00
2023-05-05T20:27:05.632Z,100.00
2023-05-05T20:29:33.380Z,100.00
2023-05-05T20:32:02.352Z,100.00
2023-05-05T20:34:33.964Z,100.00
2023-05-05T20:37:01.964Z,100.00
2023-05-05T20:39:29.823Z,100.00
2023-05-05T20:41:57.534Z,100.00
2023-05-05T20:44:25.733Z,100.00
2023-05-05T20:46:53.924Z,100.00
2023-05-05T20:49:22.227Z,100.00
2023-05-05T20:52:01.784Z,100.00
2023-05-05T20:54:32.849Z,100.00
2023-05-05T20:57:02.134Z,100.00
2023-05-05T20:59:32.636Z,100.00
2023-05-05T21:02:00.511Z,100.00
2023-05-05T21:04:28.328Z,100.00
2023-05-05T21:06:57.552Z,100.00
2023-05-05T21:09:25.445Z,100.00
2023-05-05T21:11:54.316Z,100.00
2023-05-05T21:14:22.740Z,100.00
2023-05-05T21:16:51.322Z,100.00
2023-05-05T21:19:20.569Z,100.00
2023-05-05T21:21:51.263Z,100.00
2023-05-05T21:24:22.998Z,100.00
2023-05-05T21:26:53.861Z,100.00
2023-05-05T21:29:21.868Z,100.00
2023-05-05T21:31:49.986Z,100.00
2023-05-05T21:34:18.476Z,100.00
2023-05-05T21:36:46.686Z,100.00
2023-05-05T21:39:15.229Z,100.00
2023-05-05T21:41:45.993Z,100.00
2023-05-05T21:44:14.961Z,100.00
2023-05-05T21:46:43.696Z,100.00
2023-05-05T21:49:15.995Z,100.00
2023-05-05T21:51:44.541Z,100.00
2023-05-05T21:54:12.572Z,100.00
2023-05-05T21:56:40.912Z,100.00
2023-05-05T21:59:10.465Z,100.00
2023-05-05T22:01:38.711Z,100.00
2023-05-05T22:04:07.514Z,100.00
2023-05-05T22:06:35.950Z,100.00
2023-05-05T22:09:04.492Z,100.00
2023-05-05T22:11:35.017Z,100.00
2023-05-05T22:14:03.092Z,100.00
2023-05-05T22:16:32.685Z,100.00
2023-05-05T22:19:02.167Z,100.00
2023-05-05T22:21:30.347Z,100.00
2023-05-05T22:23:58.357Z,100.00
2023-05-05T22:26:27.041Z,100.00
2023-05-05T22:28:55.906Z,100.00
2023-05-05T22:31:23.972Z,100.00
2023-05-05T22:33:53.299Z,100.00
2023-05-05T22:36:22.967Z,100.00
2023-05-05T22:38:53.839Z,100.00
2023-05-05T22:41:22.292Z,100.00
2023-05-05T22:43:50.397Z,100.00
2023-05-05T22:46:18.215Z,100.00
2023-05-05T22:48:46.831Z,100.00
2023-05-05T22:51:17.947Z,100.00
2023-05-05T22:53:46.103Z,100.00
2023-05-05T22:56:14.419Z,100.00
2023-05-05T22:58:42.634Z,100.00
2023-05-05T23:01:11.171Z,100.00
2023-05-05T23:03:39.743Z,100.00
2023-05-05T23:06:13.738Z,100.00
2023-05-05T23:08:45.093Z,100.00
2023-05-05T23:11:13.497Z,100.00
2023-05-05T23:13:42.781Z,100.00
2023-05-05T23:16:10.850Z,100.00
2023-05-05T23:18:39.355Z,100.00
2023-05-05T23:21:07.878Z,100.00
2023-05-05T23:23:37.115Z,100.00
2023-05-05T23:26:06.228Z,100.00
2023-05-05T23:31:29.540Z,100.00
2023-05-05T23:33:59.065Z,100.00
2023-05-05T23:36:27.451Z,100.00
2023-05-05T23:38:55.698Z,100.00
2023-05-05T23:41:27.351Z,100.00
2023-05-05T23:43:55.925Z,100.00
2023-05-05T23:46:24.144Z,100.00
2023-05-05T23:48:52.379Z,100.00
2023-05-05T23:51:20.603Z,100.00
2023-05-05T23:53:49.050Z,100.00
2023-05-05T23:56:17.234Z,100.00
2023-05-05T23:58:46.763Z,100.00
